Time;durP1;ratioP1;P1;durP2;ratioP2;P2;SDS_P1;SDS_P2;PMS_P1;PMS_P2;Temp;Humidity;BMP_temperature;BMP_pressure;BME280_temperature;BME280_humidity;BME280_pressure;Samples;Min_cycle;Max_cycle;Signal;HPM_P1;HPM_P2
2021/12/02 00:00:55;;;;;;;1.20;1.05;;;;;;;-2.57;100.00;98450.44;4978156;28;20485;-78
2021/12/02 00:03:20;;;;;;;1.90;1.40;;;;;;;-2.57;100.00;98445.16;4982683;28;20027;-77
2021/12/02 00:05:45;;;;;;;1.75;1.13;;;;;;;-2.50;100.00;98482.97;4982392;28;20047;-78
2021/12/02 00:08:13;;;;;;;2.00;1.00;;;;;;;-2.54;99.74;98469.34;4979686;28;20030;-78
2021/12/02 00:10:40;;;;;;;4.10;1.02;;;;;;;-2.53;99.86;98441.19;4977476;28;20424;-78
2021/12/02 00:13:06;;;;;;;2.78;1.13;;;;;;;-2.38;99.01;98471.88;4976229;28;20034;-77
2021/12/02 00:15:47;;;;;;;2.72;1.05;;;;;;;-2.30;99.56;98486.81;4977383;28;20141;-78
2021/12/02 00:23:28;;;;;;;1.75;0.85;;;;;;;-2.23;97.79;98508.00;4977522;28;20045;-78
2021/12/02 00:25:56;;;;;;;2.30;0.90;;;;;;;-2.29;98.03;98483.16;4978949;28;20026;-77
2021/12/02 00:28:27;;;;;;;1.02;0.55;;;;;;;-2.43;97.79;98434.69;4985246;28;20033;-78
2021/12/02 00:30:57;;;;;;;1.48;1.00;;;;;;;-2.20;97.74;98476.84;4980688;28;20030;-78
2021/12/02 00:33:27;;;;;;;1.60;0.95;;;;;;;-2.30;97.65;98454.38;4975595;28;20044;-79
2021/12/02 00:35:53;;;;;;;0.95;0.57;;;;;;;-2.23;97.08;98515.91;4975611;28;20419;-77
2021/12/02 00:38:21;;;;;;;1.15;0.70;;;;;;;-2.21;97.01;98477.03;4974107;28;20122;-79
2021/12/02 00:40:47;;;;;;;1.40;0.70;;;;;;;-2.12;96.99;98486.50;4976250;28;20042;-78
2021/12/02 00:43:13;;;;;;;1.90;0.98;;;;;;;-2.09;96.80;98496.69;4976752;28;20031;-78
2021/12/02 00:45:40;;;;;;;1.40;0.77;;;;;;;-2.16;96.47;98482.59;4975475;28;20033;-78
2021/12/02 00:48:11;;;;;;;2.85;0.93;;;;;;;-2.13;96.96;98506.78;4975650;28;20027;-78
2021/12/02 00:50:39;;;;;;;2.47;0.85;;;;;;;-2.26;96.36;98503.06;4975550;28;20365;-78
2021/12/02 00:53:09;;;;;;;2.45;0.77;;;;;;;-2.05;96.24;98524.38;4976956;28;20121;-78
2021/12/02 00:55:38;;;;;;;1.35;0.90;;;;;;;-2.12;96.05;98507.59;4975256;28;20030;-78
2021/12/02 00:58:04;;;;;;;1.63;0.80;;;;;;;-2.14;95.48;98512.22;4973636;28;20027;-78
2021/12/02 01:00:32;;;;;;;1.45;0.73;;;;;;;-2.06;96.03;98546.41;4976610;28;20031;-78
2021/12/02 01:03:02;;;;;;;1.73;0.60;;;;;;;-1.98;96.68;98517.41;4975167;28;20111;-78
2021/12/02 01:05:30;;;;;;;1.55;0.75;;;;;;;-2.01;95.33;98517.75;4991766;28;20081;-79
2021/12/02 01:07:59;;;;;;;2.78;0.50;;;;;;;-2.04;94.02;98486.47;4974974;28;20023;-78
2021/12/02 01:10:25;;;;;;;1.85;0.63;;;;;;;-1.99;94.66;98528.91;4975925;28;20030;-78
2021/12/02 01:12:50;;;;;;;0.75;0.50;;;;;;;-2.05;94.42;98531.44;4973786;28;20027;-78
2021/12/02 01:15:16;;;;;;;1.40;0.57;;;;;;;-1.91;93.92;98559.69;4960535;28;20116;-78
2021/12/02 01:17:42;;;;;;;1.85;0.60;;;;;;;-1.95;93.90;98564.50;4959457;28;20038;-78
2021/12/02 01:20:08;;;;;;;1.23;0.60;;;;;;;-1.93;94.29;98525.59;4942715;28;20445;-78
2021/12/02 01:22:38;;;;;;;0.82;0.63;;;;;;;-2.05;93.42;98532.28;4975048;28;20038;-78
2021/12/02 01:25:05;;;;;;;0.75;0.50;;;;;;;-1.92;93.54;98543.06;4976090;28;20353;-78
2021/12/02 01:27:34;;;;;;;1.13;0.75;;;;;;;-1.84;92.75;98558.00;4984803;28;20026;-79
2021/12/02 01:30:00;;;;;;;0.98;0.47;;;;;;;-1.80;93.08;98566.38;4971194;28;20181;-78
2021/12/02 01:32:26;;;;;;;3.13;0.70;;;;;;;-1.85;92.52;98579.25;4956974;28;20508;-79
2021/12/02 01:34:53;;;;;;;1.00;0.50;;;;;;;-1.73;92.48;98562.03;4975976;28;20052;-79
2021/12/02 01:37:18;;;;;;;1.92;0.40;;;;;;;-1.84;92.87;98549.28;4974046;28;20035;-78
2021/12/02 01:39:44;;;;;;;1.10;0.43;;;;;;;-1.64;92.74;98570.72;4974797;28;20038;-78
2021/12/02 01:42:23;;;;;;;0.75;0.40;;;;;;;-1.67;92.50;98571.88;4958736;28;20031;-78
2021/12/02 01:44:51;;;;;;;1.42;0.50;;;;;;;-1.69;93.10;98579.97;4975133;28;20026;-79
2021/12/02 01:47:23;;;;;;;0.82;0.50;;;;;;;-1.77;92.69;98608.19;4976900;28;20026;-79
2021/12/02 01:49:54;;;;;;;1.10;0.50;;;;;;;-1.71;92.73;98586.41;4982262;28;20010;-78
2021/12/02 01:52:24;;;;;;;2.47;0.90;;;;;;;-1.73;93.65;98591.84;4991372;28;20018;-78
2021/12/02 01:54:55;;;;;;;0.85;0.60;;;;;;;-1.95;93.88;98563.69;4976819;28;20058;-78
2021/12/02 01:57:29;;;;;;;1.55;0.88;;;;;;;-2.00;94.16;98521.19;4975891;28;20027;-79
2021/12/02 02:00:17;;;;;;;3.50;1.13;;;;;;;-1.94;95.24;98600.38;4958959;28;20038;-78
2021/12/02 02:02:43;;;;;;;4.00;1.40;;;;;;;-2.10;95.02;98582.03;4964123;28;20042;-78
2021/12/02 02:05:14;;;;;;;1.52;1.05;;;;;;;-2.10;96.39;98587.28;4977115;28;20060;-78
2021/12/02 02:07:52;;;;;;;1.25;1.10;;;;;;;-2.12;96.57;98599.81;4992122;28;20037;-78
2021/12/02 02:10:19;;;;;;;1.77;1.10;;;;;;;-2.43;96.52;98579.53;4976332;28;20033;-78
2021/12/02 02:12:47;;;;;;;1.55;1.05;;;;;;;-2.27;96.23;98619.97;4973615;28;20125;-79
2021/12/02 02:15:18;;;;;;;2.45;1.13;;;;;;;-2.29;96.70;98627.22;4976979;28;20413;-79
2021/12/02 02:18:26;;;;;;;1.48;1.02;;;;;;;-2.26;96.56;98645.31;4974645;28;20255;-78
2021/12/02 02:20:39;;;;;;;3.55;1.23;;;;;;;-2.23;98.04;98640.53;4968782;28;20046;-79
2021/12/02 02:23:09;;;;;;;3.38;1.50;;;;;;;-2.34;97.49;98626.94;4972981;28;20094;-78
2021/12/02 02:25:34;;;;;;;2.53;1.13;;;;;;;-2.45;97.47;98641.25;4958611;28;20050;-77
2021/12/02 02:28:00;;;;;;;6.68;1.15;;;;;;;-2.38;98.75;98643.06;4973898;28;20078;-78
2021/12/02 02:30:25;;;;;;;2.83;1.63;;;;;;;-2.34;99.33;98674.34;4973226;28;20023;-78
2021/12/02 02:32:52;;;;;;;2.22;1.30;;;;;;;-2.39;99.29;98646.66;4976054;28;20479;-78
2021/12/02 02:35:18;;;;;;;4.65;1.30;;;;;;;-2.40;99.58;98626.59;4973495;28;20027;-77
2021/12/02 02:37:44;;;;;;;1.55;1.10;;;;;;;-2.41;99.51;98651.31;4974586;28;20041;-78
2021/12/02 02:40:11;;;;;;;1.33;1.10;;;;;;;-2.34;99.83;98672.53;4974893;28;20035;-78
2021/12/02 02:42:37;;;;;;;2.53;1.27;;;;;;;-2.54;99.41;98642.28;4958092;28;20022;-78
2021/12/02 02:45:04;;;;;;;3.05;1.00;;;;;;;-2.36;99.47;98666.59;4976997;28;20040;-78
2021/12/02 02:47:29;;;;;;;2.10;1.33;;;;;;;-2.52;100.00;98646.38;4976632;28;20026;-78
2021/12/02 02:49:55;;;;;;;0.77;0.60;;;;;;;-2.47;99.97;98643.25;4964479;28;20034;-78
2021/12/02 02:52:21;;;;;;;2.53;1.20;;;;;;;-2.41;100.00;98667.09;4976869;28;20035;-78
2021/12/02 02:54:47;;;;;;;2.28;1.25;;;;;;;-2.44;100.00;98659.53;4974233;28;20026;-78
2021/12/02 02:57:15;;;;;;;1.83;1.23;;;;;;;-2.52;100.00;98671.88;4976944;28;20205;-78
2021/12/02 03:07:26;;;;;;;1.42;0.90;;;;;;;-2.52;100.00;98688.50;4961734;28;20041;-78
2021/12/02 03:13:10;;;;;;;2.38;0.90;;;;;;;-2.55;100.00;98704.66;4944685;28;20289;-78
2021/12/02 03:18:21;;;;;;;2.25;1.10;;;;;;;-2.50;100.00;98681.28;4977477;28;20045;-78
2021/12/02 03:20:47;;;;;;;1.75;1.00;;;;;;;-2.48;100.00;98695.09;4977605;28;20034;-78
2021/12/02 03:23:12;;;;;;;1.52;1.13;;;;;;;-2.48;100.00;98703.00;4976115;28;20093;-79
2021/12/02 03:25:38;;;;;;;1.27;0.88;;;;;;;-2.28;100.00;98742.97;4960860;28;20530;-79
2021/12/02 03:28:05;;;;;;;1.70;0.93;;;;;;;-2.28;100.00;98713.19;4961003;28;20046;-79
2021/12/02 03:30:32;;;;;;;1.92;0.90;;;;;;;-2.32;100.00;98706.56;4993205;28;20023;-78
2021/12/02 03:32:57;;;;;;;1.65;1.10;;;;;;;-2.40;99.82;98715.31;4978786;28;20035;-79
2021/12/02 03:35:23;;;;;;;1.60;0.98;;;;;;;-2.07;100.00;98723.97;4977412;28;20096;-78
2021/12/02 03:37:49;;;;;;;1.67;0.90;;;;;;;-2.15;100.00;98740.63;4977737;28;20461;-78
2021/12/02 03:40:15;;;;;;;1.73;1.00;;;;;;;-2.19;100.00;98734.03;4960508;28;20114;-78
2021/12/02 03:42:50;;;;;;;1.92;1.08;;;;;;;-2.44;100.00;98721.94;4978245;28;20361;-78
2021/12/02 03:45:16;;;;;;;2.30;0.90;;;;;;;-2.17;100.00;98745.25;4974903;28;20070;-78
2021/12/02 03:47:41;;;;;;;1.63;1.10;;;;;;;-2.23;100.00;98750.34;4976070;28;20027;-78
2021/12/02 03:50:08;;;;;;;2.25;0.85;;;;;;;-2.17;99.19;98783.94;4983137;28;20031;-78
2021/12/02 03:52:33;;;;;;;1.20;0.77;;;;;;;-2.15;100.00;98779.34;4975780;28;20034;-78
2021/12/02 03:54:59;;;;;;;1.88;1.10;;;;;;;-2.20;100.00;98771.09;4960566;28;20468;-78
2021/12/02 03:57:28;;;;;;;2.85;0.90;;;;;;;-2.20;100.00;98776.38;4978075;28;20434;-79
2021/12/02 03:59:53;;;;;;;2.13;0.88;;;;;;;-2.09;100.00;98748.84;4976671;28;20027;-78
2021/12/02 04:02:19;;;;;;;1.38;0.80;;;;;;;-2.05;99.48;98771.22;4976002;28;20041;-79
2021/12/02 04:04:44;;;;;;;1.70;0.80;;;;;;;-2.01;99.17;98776.00;4944381;28;20114;-78
2021/12/02 04:07:18;;;;;;;2.80;0.98;;;;;;;-2.10;99.15;98766.47;4975981;28;20023;-78
2021/12/02 04:09:45;;;;;;;2.75;1.10;;;;;;;-1.96;98.96;98794.75;4966554;28;20111;-78
2021/12/02 04:12:44;;;;;;;2.60;0.75;;;;;;;-2.10;98.15;98800.72;4976602;28;20097;-78
2021/12/02 04:15:17;;;;;;;1.35;0.80;;;;;;;-2.11;98.32;98790.38;4975547;28;20061;-78
2021/12/02 04:17:43;;;;;;;0.90;0.60;;;;;;;-2.05;98.30;98811.59;4976419;28;20449;-78
2021/12/02 04:20:22;;;;;;;2.03;0.82;;;;;;;-2.09;97.60;98809.44;4959246;28;20034;-78
2021/12/02 04:22:48;;;;;;;1.10;0.63;;;;;;;-2.04;97.52;98807.97;4977898;28;20033;-78
2021/12/02 04:25:14;;;;;;;2.65;0.75;;;;;;;-2.07;98.25;98818.84;4975936;28;20037;-78
2021/12/02 04:27:40;;;;;;;4.57;0.80;;;;;;;-2.08;97.90;98825.09;4958454;28;20110;-78
2021/12/02 04:30:10;;;;;;;3.22;0.77;;;;;;;-2.22;98.34;98816.06;4976456;28;20023;-78
2021/12/02 04:32:35;;;;;;;1.05;0.70;;;;;;;-2.08;97.86;98817.19;4974490;28;20018;-78
2021/12/02 04:35:01;;;;;;;1.95;0.80;;;;;;;-2.15;97.35;98838.13;4982040;28;20113;-79
2021/12/02 04:37:28;;;;;;;1.33;0.70;;;;;;;-2.13;97.55;98835.31;4965447;28;20123;-78
2021/12/02 04:39:53;;;;;;;0.65;0.50;;;;;;;-2.40;97.71;98771.44;4974153;28;20404;-78
2021/12/02 04:42:18;;;;;;;0.75;0.60;;;;;;;-2.13;97.16;98808.97;4979620;28;20118;-79
2021/12/02 04:44:44;;;;;;;2.33;0.73;;;;;;;-2.03;96.99;98849.13;4982712;28;20043;-79
2021/12/02 04:47:11;;;;;;;0.95;0.60;;;;;;;-2.09;96.72;98854.25;4976719;28;20026;-79
2021/12/02 04:49:36;;;;;;;2.20;0.60;;;;;;;-2.00;96.96;98840.91;4978459;28;20385;-78
2021/12/02 04:52:03;;;;;;;1.50;0.40;;;;;;;-2.07;96.32;98824.09;4975300;28;20050;-78
2021/12/02 04:54:28;;;;;;;1.30;0.70;;;;;;;-2.54;95.66;98787.94;4974723;28;20409;-79
2021/12/02 04:56:54;;;;;;;1.05;0.68;;;;;;;-2.11;96.50;98850.97;4992835;28;20310;-78
2021/12/02 04:59:19;;;;;;;2.08;0.60;;;;;;;-2.26;96.10;98817.38;4974110;28;20042;-79
2021/12/02 05:01:46;;;;;;;0.75;0.45;;;;;;;-1.94;96.04;98849.97;4975860;28;20030;-79
2021/12/02 05:04:13;;;;;;;1.08;0.45;;;;;;;-2.16;95.66;98838.28;4976013;28;20100;-77
2021/12/02 05:06:38;;;;;;;1.85;0.80;;;;;;;-1.99;95.46;98868.88;4976488;28;20360;-78
2021/12/02 05:09:03;;;;;;;0.70;0.50;;;;;;;-2.06;95.34;98867.91;4977178;28;20042;-78
2021/12/02 05:11:29;;;;;;;1.80;0.60;;;;;;;-2.11;94.57;98851.78;4977340;28;20039;-78
2021/12/02 05:13:54;;;;;;;2.05;0.60;;;;;;;-2.25;94.77;98857.69;4979853;28;20038;-78
2021/12/02 05:16:20;;;;;;;1.65;0.43;;;;;;;-2.21;95.08;98877.47;4978398;28;20056;-78
2021/12/02 05:18:45;;;;;;;1.00;0.50;;;;;;;-2.34;94.57;98867.44;4980308;28;20027;-79
2021/12/02 05:21:11;;;;;;;1.60;0.50;;;;;;;-2.33;94.01;98876.16;4976442;28;20035;-79
2021/12/02 05:23:38;;;;;;;1.05;0.40;;;;;;;-2.33;93.65;98886.69;4979603;28;20501;-78
2021/12/02 05:26:03;;;;;;;0.60;0.50;;;;;;;-2.72;92.47;98855.69;4975111;28;20122;-78
2021/12/02 05:28:29;;;;;;;0.70;0.55;;;;;;;-2.57;93.38;98888.31;4976863;28;20432;-79
2021/12/02 05:30:54;;;;;;;1.42;0.50;;;;;;;-2.54;92.79;98902.97;4959745;28;20035;-78
2021/12/02 05:33:21;;;;;;;1.00;0.50;;;;;;;-2.49;93.73;98896.22;4975423;28;20042;-79
2021/12/02 05:35:47;;;;;;;1.40;0.60;;;;;;;-2.65;93.43;98883.00;4975239;28;20054;-78
2021/12/02 05:38:13;;;;;;;0.40;0.40;;;;;;;-2.53;92.86;98907.25;4957658;28;20402;-80
2021/12/02 05:40:38;;;;;;;0.90;0.50;;;;;;;-2.31;93.31;98905.81;4974162;28;20053;-79
2021/12/02 05:43:04;;;;;;;2.05;0.60;;;;;;;-2.38;93.07;98905.63;4977380;28;20026;-79
2021/12/02 05:45:30;;;;;;;0.80;0.43;;;;;;;-2.37;92.70;98912.53;4976769;28;20062;-80
2021/12/02 05:47:56;;;;;;;1.42;0.50;;;;;;;-2.41;91.68;98911.22;4975413;28;20034;-78
2021/12/02 05:50:21;;;;;;;1.98;0.55;;;;;;;-2.60;90.88;98909.69;4958469;28;20430;-78
2021/12/02 05:52:47;;;;;;;1.05;0.45;;;;;;;-2.62;91.27;98925.66;4975553;28;20046;-79
2021/12/02 05:55:13;;;;;;;1.05;0.50;;;;;;;-2.64;91.81;98927.63;4957095;28;20086;-79
2021/12/02 05:57:38;;;;;;;0.57;0.40;;;;;;;-2.65;91.47;98939.16;4977187;28;20035;-79
2021/12/02 06:00:06;;;;;;;1.55;0.38;;;;;;;-2.69;91.60;98923.81;4986402;28;20037;-80
2021/12/02 06:02:32;;;;;;;0.30;0.25;;;;;;;-2.54;91.25;98931.94;4987372;28;20030;-79
2021/12/02 06:04:57;;;;;;;0.93;0.50;;;;;;;-2.53;90.31;98973.06;4979240;28;20056;-79
2021/12/02 06:07:23;;;;;;;0.55;0.40;;;;;;;-2.51;90.35;98963.22;4984542;28;20094;-81
2021/12/02 06:09:52;;;;;;;0.50;0.40;;;;;;;-2.70;90.21;98941.41;4989965;28;20452;-81
2021/12/02 06:12:18;;;;;;;1.05;0.60;;;;;;;-2.87;89.56;98963.41;4982420;28;20109;-80
2021/12/02 06:14:43;;;;;;;1.13;0.50;;;;;;;-2.67;89.73;98985.88;4978535;28;20075;-79
2021/12/02 06:17:11;;;;;;;0.82;0.50;;;;;;;-2.65;88.46;98983.06;4973660;28;20484;-79
2021/12/02 06:19:36;;;;;;;1.10;0.52;;;;;;;-2.76;88.36;98986.81;4975205;28;20057;-79
2021/12/02 06:22:03;;;;;;;1.15;0.50;;;;;;;-2.69;88.62;98984.38;4976564;28;20070;-78
2021/12/02 06:24:31;;;;;;;2.28;0.52;;;;;;;-2.67;88.58;99001.66;4974996;28;20397;-78
2021/12/02 06:26:57;;;;;;;0.65;0.40;;;;;;;-2.87;88.62;98993.19;4975997;28;20019;-78
2021/12/02 06:29:23;;;;;;;1.17;0.45;;;;;;;-2.88;88.19;99002.06;4938360;28;20042;-79
2021/12/02 06:31:48;;;;;;;0.90;0.50;;;;;;;-2.81;87.76;99020.69;4980002;28;20045;-79
2021/12/02 06:34:14;;;;;;;0.70;0.43;;;;;;;-2.73;87.61;99025.16;4980520;28;20324;-79
2021/12/02 06:36:40;;;;;;;0.50;0.30;;;;;;;-2.76;87.35;99013.13;4978997;28;20373;-81
2021/12/02 06:39:06;;;;;;;0.75;0.30;;;;;;;-2.88;88.04;99025.75;4977499;28;20029;-79
2021/12/02 06:41:32;;;;;;;1.70;0.50;;;;;;;-2.97;88.07;99031.13;4978685;28;20022;-79
2021/12/02 06:43:57;;;;;;;0.70;0.52;;;;;;;-2.96;88.05;99030.13;4978201;28;20037;-79
2021/12/02 06:46:23;;;;;;;1.10;0.35;;;;;;;-2.92;87.88;99034.09;4980110;28;20019;-78
2021/12/02 06:48:49;;;;;;;1.13;0.63;;;;;;;-3.25;87.72;98981.28;4983318;28;20033;-79
2021/12/02 06:51:16;;;;;;;1.35;0.57;;;;;;;-3.09;87.68;99044.53;4978628;28;20026;-78
2021/12/02 06:53:42;;;;;;;0.52;0.30;;;;;;;-3.09;87.67;99036.63;4976058;28;20130;-79
2021/12/02 06:56:09;;;;;;;1.05;0.50;;;;;;;-3.23;86.86;99052.19;4978247;28;20054;-79
2021/12/02 06:58:36;;;;;;;0.73;0.50;;;;;;;-3.32;86.98;99062.63;4986234;28;20038;-80
2021/12/02 07:01:02;;;;;;;1.33;0.60;;;;;;;-3.21;87.23;99065.97;4979080;28;20023;-78
2021/12/02 07:03:27;;;;;;;1.95;0.70;;;;;;;-3.25;86.74;99083.06;4976287;28;20576;-79
2021/12/02 07:05:54;;;;;;;0.85;0.52;;;;;;;-3.41;86.93;99055.66;4957927;28;20045;-78
2021/12/02 07:08:20;;;;;;;2.60;0.63;;;;;;;-3.40;86.81;99083.63;4969087;28;20051;-78
2021/12/02 07:10:46;;;;;;;0.98;0.50;;;;;;;-3.43;86.99;99093.59;4971338;28;20029;-79
2021/12/02 07:13:11;;;;;;;1.60;0.32;;;;;;;-3.50;86.90;99088.13;4968215;28;20051;-79
2021/12/02 07:15:49;;;;;;;1.40;0.50;;;;;;;-3.45;87.16;99109.53;4959722;28;20070;-79
2021/12/02 07:18:16;;;;;;;1.85;0.57;;;;;;;-3.48;86.69;99096.69;4979260;28;20038;-78
2021/12/02 07:20:46;;;;;;;0.82;0.60;;;;;;;-3.33;87.25;99131.16;4974368;28;20042;-79
2021/12/02 07:23:12;;;;;;;1.45;0.60;;;;;;;-3.29;86.91;99129.88;4976809;28;20041;-77
2021/12/02 07:25:40;;;;;;;1.10;0.68;;;;;;;-3.26;87.22;99136.66;4976594;28;20026;-79
2021/12/02 07:28:10;;;;;;;1.85;0.70;;;;;;;-3.37;87.05;99124.56;4961101;28;20476;-79
2021/12/02 07:30:37;;;;;;;0.88;0.55;;;;;;;-3.33;87.30;99139.88;4976445;28;20026;-79
2021/12/02 07:33:05;;;;;;;1.40;0.80;;;;;;;-3.51;87.19;99144.31;4978573;28;20695;-79
2021/12/02 07:35:30;;;;;;;1.60;0.70;;;;;;;-3.67;87.22;99137.09;4975887;28;20364;-79
2021/12/02 07:37:59;;;;;;;1.35;0.60;;;;;;;-3.66;88.13;99164.22;4972776;28;20073;-79
2021/12/02 07:40:28;;;;;;;1.58;0.60;;;;;;;-3.56;87.88;99164.97;4976189;28;20037;-78
2021/12/02 07:42:54;;;;;;;1.30;0.50;;;;;;;-3.64;87.85;99175.38;4959616;28;20453;-79
2021/12/02 07:45:26;;;;;;;1.23;0.73;;;;;;;-3.52;88.31;99184.72;4987622;28;20027;-79
2021/12/02 07:47:52;;;;;;;3.13;0.75;;;;;;;-3.67;88.37;99152.88;4969333;28;20038;-79
2021/12/02 07:50:19;;;;;;;0.95;0.45;;;;;;;-3.63;87.78;99187.56;4979849;28;20030;-79
2021/12/02 07:52:49;;;;;;;6.20;0.95;;;;;;;-3.69;88.27;99190.78;4978017;28;20035;-79
2021/12/02 07:55:16;;;;;;;1.73;0.60;;;;;;;-4.01;88.96;99152.66;4979235;28;20085;-79
2021/12/02 07:57:46;;;;;;;1.92;0.50;;;;;;;-3.72;88.73;99212.09;4957847;28;20022;-78
2021/12/02 08:00:32;;;;;;;0.98;0.50;;;;;;;-3.64;88.97;99204.31;4974840;28;20027;-78
2021/12/02 08:02:58;;;;;;;3.25;0.60;;;;;;;-3.63;88.89;99216.50;4975648;28;20078;-78
2021/12/02 08:05:26;;;;;;;3.22;0.88;;;;;;;-3.63;88.74;99216.50;4975423;28;20034;-78
2021/12/02 08:07:53;;;;;;;1.10;0.50;;;;;;;-3.67;88.45;99223.84;4977805;28;20110;-78
2021/12/02 08:10:20;;;;;;;1.30;0.68;;;;;;;-3.78;88.36;99224.03;4975951;28;20061;-78
2021/12/02 08:12:48;;;;;;;2.65;0.50;;;;;;;-3.65;88.98;99221.06;4975736;28;20118;-79
2021/12/02 08:15:25;;;;;;;1.25;0.60;;;;;;;-3.56;88.63;99231.53;4978186;28;20552;-78
2021/12/02 08:17:51;;;;;;;2.47;0.80;;;;;;;-3.95;88.74;99178.34;4976721;28;20042;-78
2021/12/02 08:20:18;;;;;;;1.40;0.40;;;;;;;-3.53;89.09;99240.91;4976147;28;20099;-79
2021/12/02 08:22:44;;;;;;;2.15;0.57;;;;;;;-3.67;89.63;99236.16;4978744;28;20464;-79
2021/12/02 08:25:10;;;;;;;2.17;0.80;;;;;;;-3.81;89.91;99242.72;4974688;28;20078;-78
2021/12/02 08:27:37;;;;;;;2.10;0.65;;;;;;;-3.70;89.58;99255.69;4959936;28;20027;-78
2021/12/02 08:30:04;;;;;;;1.85;0.70;;;;;;;-4.03;89.90;99201.91;4974750;28;20023;-78
2021/12/02 08:32:30;;;;;;;1.83;0.70;;;;;;;-3.80;89.72;99254.91;4974916;28;20041;-79
2021/12/02 08:34:58;;;;;;;2.17;0.45;;;;;;;-3.93;88.49;99270.16;4987993;28;20033;-79
2021/12/02 08:37:26;;;;;;;1.40;0.60;;;;;;;-3.86;88.47;99290.47;4990493;28;20376;-78
2021/12/02 08:39:51;;;;;;;2.60;0.70;;;;;;;-4.14;89.26;99246.72;4975310;28;20034;-79
2021/12/02 08:42:18;;;;;;;1.15;0.60;;;;;;;-3.69;88.64;99301.19;4944736;28;20035;-79
2021/12/02 08:44:44;;;;;;;1.25;0.60;;;;;;;-3.87;88.34;99283.56;4980325;28;20038;-79
2021/12/02 08:47:11;;;;;;;1.73;0.80;;;;;;;-3.83;88.20;99305.94;4975830;28;20174;-78
2021/12/02 08:49:37;;;;;;;1.08;0.50;;;;;;;-3.67;88.33;99294.81;4974509;28;20381;-79
2021/12/02 08:52:03;;;;;;;2.17;0.55;;;;;;;-3.92;88.42;99304.16;4957817;28;20118;-78
2021/12/02 08:54:28;;;;;;;2.47;0.40;;;;;;;-4.11;87.44;99301.59;4975683;28;20181;-78
2021/12/02 08:56:55;;;;;;;0.82;0.40;;;;;;;-3.87;88.00;99306.38;4974516;28;20124;-79
2021/12/02 08:59:22;;;;;;;2.45;0.60;;;;;;;-4.26;86.92;99260.03;4977132;28;20385;-78
2021/12/02 09:01:47;;;;;;;0.98;0.40;;;;;;;-4.07;86.85;99308.25;4975619;28;20129;-79
2021/12/02 09:04:13;;;;;;;1.40;0.50;;;;;;;-4.09;87.46;99286.53;4959548;28;20122;-79
2021/12/02 09:06:38;;;;;;;1.38;0.52;;;;;;;-4.03;87.27;99312.22;4973882;28;20034;-78
2021/12/02 09:09:04;;;;;;;2.25;0.80;;;;;;;-3.97;87.31;99313.44;4975629;28;20035;-78
2021/12/02 09:11:33;;;;;;;1.92;0.43;;;;;;;-4.05;87.44;99312.34;4975577;28;20030;-78
2021/12/02 09:14:04;;;;;;;1.00;0.30;;;;;;;-3.91;87.34;99321.56;4978763;28;20031;-79
2021/12/02 09:16:30;;;;;;;2.97;0.70;;;;;;;-4.21;86.58;99313.91;4976208;28;20505;-78
2021/12/02 09:18:56;;;;;;;3.33;0.50;;;;;;;-4.39;86.92;99280.50;4958474;28;20038;-79
2021/12/02 09:21:24;;;;;;;1.02;0.60;;;;;;;-4.44;87.06;99277.47;4974698;28;20050;-79
2021/12/02 09:23:51;;;;;;;1.63;0.65;;;;;;;-4.03;86.90;99323.56;4974535;28;20041;-79
2021/12/02 09:26:16;;;;;;;1.88;0.50;;;;;;;-4.31;87.05;99306.06;4976196;28;20089;-78
2021/12/02 09:28:42;;;;;;;0.85;0.40;;;;;;;-4.20;87.84;99333.97;4974672;28;20412;-79
2021/12/02 09:31:07;;;;;;;1.10;0.40;;;;;;;-4.19;87.83;99323.31;4974829;28;20135;-78
2021/12/02 09:33:33;;;;;;;1.30;0.60;;;;;;;-4.30;87.98;99326.13;4956690;28;20026;-79
2021/12/02 09:35:59;;;;;;;1.83;0.60;;;;;;;-4.45;88.62;99325.69;4975847;28;20137;-78
2021/12/02 09:38:24;;;;;;;1.52;0.40;;;;;;;-4.39;89.06;99342.69;4975425;28;20088;-79
2021/12/02 09:40:51;;;;;;;1.50;0.90;;;;;;;-4.30;88.61;99328.75;4958298;28;20031;-79
2021/12/02 09:43:16;;;;;;;0.73;0.45;;;;;;;-4.12;87.95;99334.91;4975949;28;20030;-79
2021/12/02 09:45:42;;;;;;;1.48;0.52;;;;;;;-4.46;87.74;99292.56;4959646;28;20057;-79
2021/12/02 09:48:10;;;;;;;1.83;0.55;;;;;;;-4.03;88.18;99346.38;4975510;28;20496;-79
2021/12/02 09:50:39;;;;;;;1.58;0.38;;;;;;;-4.21;88.45;99348.06;4974849;28;20038;-79
2021/12/02 09:53:16;;;;;;;0.90;0.50;;;;;;;-4.08;88.13;99341.53;4981846;28;20104;-79
2021/12/02 09:55:52;;;;;;;1.17;0.50;;;;;;;-4.24;88.27;99320.28;4983073;28;20022;-79
2021/12/02 09:58:22;;;;;;;1.20;0.40;;;;;;;-4.16;88.42;99348.47;4977106;28;20059;-79
2021/12/02 10:01:08;;;;;;;2.28;0.60;;;;;;;-4.01;87.79;99341.78;4959597;28;20047;-79
2021/12/02 10:03:46;;;;;;;2.22;0.50;;;;;;;-3.92;87.67;99346.22;4973120;28;20034;-79
2021/12/02 10:06:21;;;;;;;1.08;0.45;;;;;;;-4.66;87.30;99241.06;4973934;28;20038;-78
2021/12/02 10:09:04;;;;;;;0.82;0.47;;;;;;;-3.94;87.62;99337.66;4971830;28;20026;-78
2021/12/02 10:11:59;;;;;;;0.90;0.50;;;;;;;-4.03;87.42;99323.56;4973917;28;20121;-79
2021/12/02 10:14:37;;;;;;;0.88;0.43;;;;;;;-3.74;87.48;99354.19;4976153;28;20035;-78
2021/12/02 10:17:10;;;;;;;1.38;0.50;;;;;;;-3.67;86.88;99355.28;4957544;28;20081;-79
2021/12/02 10:19:39;;;;;;;0.90;0.40;;;;;;;-3.84;86.52;99327.94;4974494;28;20357;-79
2021/12/02 10:22:08;;;;;;;1.15;0.30;;;;;;;-3.66;86.83;99361.34;4976920;28;20086;-79
2021/12/02 10:24:42;;;;;;;2.67;0.77;;;;;;;-3.90;86.69;99339.03;4974233;28;20464;-78
2021/12/02 10:27:09;;;;;;;0.50;0.35;;;;;;;-3.73;86.25;99360.28;4975127;28;20037;-78
2021/12/02 10:29:36;;;;;;;1.83;0.43;;;;;;;-3.83;86.16;99345.38;4975743;28;20019;-79
2021/12/02 10:32:22;;;;;;;2.72;0.60;;;;;;;-3.56;86.18;99364.78;4972194;28;20057;-78
2021/12/02 10:34:51;;;;;;;;;;;;;;;-3.57;85.78;99371.03;4975902;28;20034;-78
2021/12/02 10:37:18;;;;;;;0.90;0.40;;;;;;;-3.56;85.86;99383.19;4971875;28;19978;-79
2021/12/02 10:39:59;;;;;;;2.45;0.40;;;;;;;-3.63;85.62;99376.84;4975224;28;20034;-78
2021/12/02 10:42:24;;;;;;;1.48;0.40;;;;;;;-3.62;85.63;99362.72;4973338;28;20023;-78
2021/12/02 10:44:52;;;;;;;0.90;0.40;;;;;;;-3.59;85.34;99370.31;4974125;28;20109;-79
2021/12/02 10:47:19;;;;;;;3.55;0.75;;;;;;;-3.72;85.04;99382.94;4975432;28;20022;-79
2021/12/02 10:50:09;;;;;;;0.85;0.35;;;;;;;-4.03;84.83;99293.84;4974797;28;20030;-79
2021/12/02 10:52:35;;;;;;;0.82;0.45;;;;;;;-3.63;85.35;99385.56;4974274;28;20114;-79
2021/12/02 10:55:16;;;;;;;0.93;0.40;;;;;;;-3.43;85.21;99388.94;4973047;28;20456;-79
2021/12/02 10:57:49;;;;;;;1.42;0.45;;;;;;;-3.53;85.03;99363.66;4974639;28;20102;-79
2021/12/02 11:00:18;;;;;;;1.13;0.50;;;;;;;-3.33;85.02;99388.91;4975069;28;20125;-79
2021/12/02 11:02:48;;;;;;;1.05;0.28;;;;;;;-3.52;84.53;99357.44;4977408;28;20057;-79
2021/12/02 11:05:25;;;;;;;1.60;0.40;;;;;;;-3.21;85.05;99381.63;4978374;28;20063;-79
2021/12/02 11:08:05;;;;;;;1.58;0.40;;;;;;;-3.28;84.60;99391.09;4975422;28;20453;-79
2021/12/02 11:10:51;;;;;;;0.63;0.32;;;;;;;-3.28;84.04;99404.25;4978394;28;20043;-79
2021/12/02 11:13:28;;;;;;;1.67;0.52;;;;;;;-3.18;85.29;99390.09;4978391;28;20114;-79
2021/12/02 11:15:54;;;;;;;1.38;0.32;;;;;;;-3.23;85.42;99367.81;4978567;28;20050;-79
2021/12/02 11:18:21;;;;;;;1.90;0.50;;;;;;;-3.07;85.82;99394.34;4978079;28;20118;-79
2021/12/02 11:20:50;;;;;;;1.27;0.47;;;;;;;-3.15;85.70;99386.31;4977216;28;20030;-79
2021/12/02 11:23:19;;;;;;;2.85;0.40;;;;;;;-3.07;86.10;99381.19;4977384;28;20448;-79
2021/12/02 11:26:01;;;;;;;4.13;0.60;;;;;;;-2.93;85.86;99390.38;4980663;28;20031;-79
2021/12/02 11:28:33;;;;;;;0.93;0.60;;;;;;;-2.97;86.37;99381.94;4993037;28;20023;-79
2021/12/02 11:31:07;;;;;;;1.75;0.80;;;;;;;-2.99;86.27;99386.53;4977632;28;20357;-79
2021/12/02 11:33:38;;;;;;;1.40;0.50;;;;;;;-3.01;86.09;99367.44;4976031;28;20122;-79
2021/12/02 11:36:05;;;;;;;4.32;0.60;;;;;;;-2.94;86.31;99378.19;4977599;28;20035;-78
2021/12/02 11:38:32;;;;;;;2.22;0.90;;;;;;;-2.90;86.67;99383.00;4975891;28;20117;-79
2021/12/02 11:41:00;;;;;;;4.00;1.73;;;;;;;-3.01;86.60;99364.81;4960575;28;20038;-79
2021/12/02 11:43:28;;;;;;;2.20;0.50;;;;;;;-2.80;86.13;99397.94;4977233;28;20040;-79
2021/12/02 11:45:58;;;;;;;1.50;0.50;;;;;;;-2.88;86.59;99403.91;4978725;28;20369;-79
2021/12/02 11:48:28;;;;;;;0.57;0.32;;;;;;;-2.94;86.42;99400.06;4977168;28;20033;-79
2021/12/02 11:51:00;;;;;;;3.28;0.55;;;;;;;-2.91;86.97;99393.69;4977010;28;20183;-79
2021/12/02 11:53:26;;;;;;;1.02;0.68;;;;;;;-3.03;86.58;99366.75;4975804;28;20042;-79
2021/12/02 11:55:54;;;;;;;1.40;0.60;;;;;;;-2.93;86.68;99382.47;4976349;28;20027;-79
2021/12/02 11:58:23;;;;;;;3.55;1.00;;;;;;;-2.87;86.46;99405.59;4977420;28;20027;-78